FDB1 OMDB-OTHH
Flight info
| Callsign | FDB1 |
|---|---|
| Flight time | 0h 59m |
| Altitude | 22000 |
| Route | NABIX P699 OXARI M430 TOSNA |
| Aircraft | B738/M-SDE2E3FGHIRWXY/LB1 |
Departure
| Time | 2026-05-06 18:43 |
|---|---|
| Airport | Dubai International Airport (OMDB) |
Arrival
| Time | 2026-05-06 19:42 |
|---|---|
| Airport | Hamad International Airport (OTHH) |
| Time | Latitude | Longitude | Altitude | Speed | Heading |
|---|---|---|---|---|---|
| 2026-05-06 18:15 | 25.26619 | 55.35499 | 20 ft | 0 kts | 31° |
| 2026-05-06 18:26 | 25.26612 | 55.35494 | 20 ft | 2 kts | 32° |
| 2026-05-06 18:26 | 25.26599 | 55.35484 | 24 ft | 2 kts | 33° |
| 2026-05-06 18:26 | 25.26585 | 55.35474 | 23 ft | 2 kts | 36° |
| 2026-05-06 18:26 | 25.26572 | 55.35463 | 23 ft | 2 kts | 42° |
| 2026-05-06 18:27 | 25.26561 | 55.35449 | 23 ft | 2 kts | 73° |
| 2026-05-06 18:27 | 25.26562 | 55.35434 | 24 ft | 1 kts | 118° |
| 2026-05-06 18:27 | 25.26563 | 55.35431 | 25 ft | 0 kts | 120° |
| 2026-05-06 18:29 | 25.26564 | 55.35431 | 25 ft | 0 kts | 120° |
| 2026-05-06 18:34 | 25.26560 | 55.35438 | 23 ft | 3 kts | 121° |
| 2026-05-06 18:34 | 25.26544 | 55.35467 | 21 ft | 7 kts | 122° |
| 2026-05-06 18:34 | 25.26507 | 55.35532 | 21 ft | 13 kts | 121° |
| 2026-05-06 18:35 | 25.26448 | 55.35637 | 21 ft | 19 kts | 122° |
| 2026-05-06 18:35 | 25.26373 | 55.35771 | 22 ft | 22 kts | 122° |
| 2026-05-06 18:35 | 25.26295 | 55.35910 | 21 ft | 21 kts | 121° |
| 2026-05-06 18:35 | 25.26218 | 55.36046 | 21 ft | 21 kts | 122° |
| 2026-05-06 18:36 | 25.26144 | 55.36178 | 21 ft | 20 kts | 122° |
| 2026-05-06 18:36 | 25.26072 | 55.36306 | 21 ft | 19 kts | 121° |
| 2026-05-06 18:36 | 25.26003 | 55.36430 | 21 ft | 19 kts | 121° |
| 2026-05-06 18:36 | 25.25935 | 55.36550 | 21 ft | 18 kts | 122° |
| 2026-05-06 18:37 | 25.25870 | 55.36666 | 23 ft | 17 kts | 122° |
| 2026-05-06 18:37 | 25.25806 | 55.36779 | 21 ft | 18 kts | 122° |
| 2026-05-06 18:37 | 25.25740 | 55.36897 | 22 ft | 19 kts | 122° |
| 2026-05-06 18:37 | 25.25673 | 55.37015 | 21 ft | 18 kts | 121° |
| 2026-05-06 18:38 | 25.25608 | 55.37131 | 21 ft | 17 kts | 122° |
| 2026-05-06 18:38 | 25.25545 | 55.37243 | 21 ft | 17 kts | 122° |
| 2026-05-06 18:38 | 25.25485 | 55.37350 | 21 ft | 16 kts | 122° |
| 2026-05-06 18:38 | 25.25427 | 55.37454 | 21 ft | 16 kts | 121° |
| 2026-05-06 18:39 | 25.25372 | 55.37554 | 21 ft | 15 kts | 121° |
| 2026-05-06 18:39 | 25.25317 | 55.37649 | 21 ft | 14 kts | 121° |
| 2026-05-06 18:39 | 25.25266 | 55.37739 | 24 ft | 14 kts | 122° |
| 2026-05-06 18:40 | 25.25160 | 55.37928 | 21 ft | 16 kts | 121° |
| 2026-05-06 18:40 | 25.25101 | 55.38032 | 20 ft | 17 kts | 122° |
| 2026-05-06 18:40 | 25.25039 | 55.38143 | 21 ft | 17 kts | 122° |
| 2026-05-06 18:40 | 25.25001 | 55.38180 | 20 ft | 3 kts | 209° |
| 2026-05-06 18:41 | 25.24976 | 55.38164 | 20 ft | 5 kts | 211° |
| 2026-05-06 18:41 | 25.24929 | 55.38132 | 21 ft | 12 kts | 211° |
| 2026-05-06 18:41 | 25.24840 | 55.38073 | 24 ft | 17 kts | 215° |
| 2026-05-06 18:41 | 25.24834 | 55.37975 | 24 ft | 4 kts | 297° |
| 2026-05-06 18:42 | 25.24852 | 55.37945 | 28 ft | 9 kts | 302° |
| 2026-05-06 18:42 | 25.25051 | 55.37587 | 26 ft | 102 kts | 301° |
| 2026-05-06 18:42 | 25.25577 | 55.36647 | 37 ft | 182 kts | 302° |
| 2026-05-06 18:42 | 25.26315 | 55.35335 | 655 ft | 210 kts | 302° |
| 2026-05-06 18:43 | 25.27077 | 55.33995 | 1877 ft | 202 kts | 302° |
| 2026-05-06 18:43 | 25.27830 | 55.32626 | 2698 ft | 218 kts | 302° |
| 2026-05-06 18:43 | 25.28656 | 55.31126 | 3007 ft | 237 kts | 302° |
| 2026-05-06 18:43 | 25.29199 | 55.29393 | 3512 ft | 246 kts | 272° |
| 2026-05-06 18:44 | 25.28796 | 55.27557 | 4186 ft | 249 kts | 246° |
| 2026-05-06 18:44 | 25.28056 | 55.25838 | 4903 ft | 253 kts | 245° |
| 2026-05-06 18:44 | 25.27293 | 55.24084 | 5758 ft | 253 kts | 246° |
| 2026-05-06 18:44 | 25.26532 | 55.22318 | 6569 ft | 255 kts | 246° |
| 2026-05-06 18:45 | 25.25768 | 55.20540 | 7349 ft | 257 kts | 246° |
| 2026-05-06 18:45 | 25.25003 | 55.18741 | 8139 ft | 260 kts | 247° |
| 2026-05-06 18:45 | 25.24562 | 55.16740 | 8511 ft | 282 kts | 266° |
| 2026-05-06 18:45 | 25.24471 | 55.14512 | 8991 ft | 296 kts | 269° |
| 2026-05-06 18:46 | 25.24401 | 55.12212 | 9743 ft | 302 kts | 268° |
| 2026-05-06 18:46 | 25.24322 | 55.09908 | 10397 ft | 310 kts | 268° |
| 2026-05-06 18:46 | 25.24222 | 55.07436 | 10587 ft | 335 kts | 267° |
| 2026-05-06 18:46 | 25.24098 | 55.04776 | 10776 ft | 357 kts | 267° |
| 2026-05-06 18:47 | 25.23957 | 55.01999 | 11224 ft | 367 kts | 267° |
| 2026-05-06 18:47 | 25.23805 | 54.99172 | 11962 ft | 368 kts | 266° |
| 2026-05-06 18:47 | 25.23647 | 54.96342 | 12670 ft | 371 kts | 267° |
| 2026-05-06 18:47 | 25.23484 | 54.93486 | 13352 ft | 374 kts | 267° |
| 2026-05-06 18:48 | 25.23319 | 54.90611 | 14003 ft | 376 kts | 267° |
| 2026-05-06 18:48 | 25.23152 | 54.87721 | 14612 ft | 379 kts | 267° |
| 2026-05-06 18:48 | 25.22985 | 54.84849 | 15214 ft | 381 kts | 267° |
| 2026-05-06 18:48 | 25.22815 | 54.81921 | 15799 ft | 385 kts | 267° |
| 2026-05-06 18:49 | 25.22642 | 54.78963 | 16400 ft | 388 kts | 267° |
| 2026-05-06 18:49 | 25.22467 | 54.75981 | 16992 ft | 391 kts | 267° |
| 2026-05-06 18:49 | 25.22290 | 54.72979 | 17560 ft | 394 kts | 267° |
| 2026-05-06 18:49 | 25.22111 | 54.69943 | 18122 ft | 397 kts | 267° |
| 2026-05-06 18:50 | 25.21931 | 54.66893 | 18643 ft | 399 kts | 267° |
| 2026-05-06 18:50 | 25.21748 | 54.63826 | 19195 ft | 400 kts | 267° |
| 2026-05-06 18:50 | 25.21566 | 54.60757 | 19737 ft | 402 kts | 266° |
| 2026-05-06 18:50 | 25.21381 | 54.57673 | 20211 ft | 403 kts | 266° |
| 2026-05-06 18:51 | 25.21232 | 54.54561 | 20610 ft | 409 kts | 270° |
| 2026-05-06 18:51 | 25.21473 | 54.51423 | 21069 ft | 411 kts | 281° |
| 2026-05-06 18:51 | 25.22165 | 54.48382 | 21662 ft | 408 kts | 285° |
| 2026-05-06 18:51 | 25.22946 | 54.45392 | 21769 ft | 405 kts | 286° |
| 2026-05-06 18:52 | 25.23728 | 54.42429 | 21800 ft | 410 kts | 286° |
| 2026-05-06 18:52 | 25.24517 | 54.39388 | 21802 ft | 411 kts | 285° |
| 2026-05-06 18:52 | 25.25286 | 54.36358 | 21802 ft | 409 kts | 285° |
| 2026-05-06 18:52 | 25.26044 | 54.33337 | 21804 ft | 407 kts | 285° |
| 2026-05-06 18:53 | 25.26795 | 54.30330 | 21805 ft | 406 kts | 285° |
| 2026-05-06 18:53 | 25.27545 | 54.27320 | 21807 ft | 406 kts | 285° |
| 2026-05-06 18:53 | 25.28293 | 54.24309 | 21808 ft | 407 kts | 285° |
| 2026-05-06 18:53 | 25.29042 | 54.21292 | 21807 ft | 407 kts | 285° |
| 2026-05-06 18:54 | 25.29781 | 54.18316 | 21805 ft | 408 kts | 285° |
| 2026-05-06 18:54 | 25.30533 | 54.15288 | 21807 ft | 409 kts | 285° |
| 2026-05-06 18:54 | 25.31277 | 54.12258 | 21807 ft | 409 kts | 284° |
| 2026-05-06 18:54 | 25.31955 | 54.09202 | 21805 ft | 410 kts | 283° |
| 2026-05-06 18:55 | 25.32597 | 54.06129 | 21806 ft | 410 kts | 282° |
| 2026-05-06 18:55 | 25.33232 | 54.03054 | 21806 ft | 410 kts | 282° |
| 2026-05-06 18:55 | 25.33872 | 53.99981 | 21804 ft | 410 kts | 283° |
| 2026-05-06 18:55 | 25.34518 | 53.96908 | 21804 ft | 410 kts | 283° |
| 2026-05-06 18:56 | 25.35168 | 53.93837 | 21810 ft | 410 kts | 283° |
| 2026-05-06 18:56 | 25.35819 | 53.90771 | 21812 ft | 410 kts | 283° |
| 2026-05-06 18:56 | 25.36462 | 53.87746 | 21814 ft | 409 kts | 283° |
| 2026-05-06 18:56 | 25.37110 | 53.84682 | 21811 ft | 409 kts | 283° |
| 2026-05-06 18:57 | 25.37752 | 53.81623 | 21803 ft | 409 kts | 283° |
| 2026-05-06 18:57 | 25.38390 | 53.78564 | 21806 ft | 408 kts | 282° |
| 2026-05-06 18:57 | 25.39026 | 53.75507 | 21809 ft | 408 kts | 282° |
| 2026-05-06 18:57 | 25.39662 | 53.72451 | 21808 ft | 407 kts | 282° |
| 2026-05-06 18:58 | 25.40296 | 53.69401 | 21810 ft | 407 kts | 282° |
| 2026-05-06 18:58 | 25.40930 | 53.66351 | 21812 ft | 407 kts | 282° |
| 2026-05-06 18:58 | 25.41563 | 53.63305 | 21809 ft | 406 kts | 282° |
| 2026-05-06 18:58 | 25.42106 | 53.60285 | 21803 ft | 406 kts | 276° |
| 2026-05-06 18:59 | 25.42211 | 53.57171 | 21813 ft | 406 kts | 267° |
| 2026-05-06 18:59 | 25.41861 | 53.54077 | 21814 ft | 406 kts | 258° |
| 2026-05-06 18:59 | 25.41246 | 53.51032 | 21820 ft | 406 kts | 257° |
| 2026-05-06 18:59 | 25.40608 | 53.47990 | 21814 ft | 406 kts | 257° |
| 2026-05-06 19:00 | 25.39978 | 53.44945 | 21808 ft | 407 kts | 257° |
| 2026-05-06 19:00 | 25.39363 | 53.41888 | 21812 ft | 407 kts | 258° |
| 2026-05-06 19:00 | 25.38765 | 53.38872 | 21817 ft | 407 kts | 258° |
| 2026-05-06 19:00 | 25.38358 | 53.36808 | 21818 ft | 407 kts | 258° |
| 2026-05-06 19:01 | 25.37631 | 53.32744 | 21815 ft | 407 kts | 260° |
| 2026-05-06 19:01 | 25.37134 | 53.29667 | 21812 ft | 407 kts | 260° |
| 2026-05-06 19:01 | 25.36642 | 53.26584 | 21815 ft | 407 kts | 260° |
| 2026-05-06 19:01 | 25.36144 | 53.23507 | 21820 ft | 406 kts | 260° |
| 2026-05-06 19:02 | 25.35638 | 53.20432 | 21812 ft | 406 kts | 259° |
| 2026-05-06 19:02 | 25.35128 | 53.17364 | 21813 ft | 406 kts | 259° |
| 2026-05-06 19:02 | 25.34617 | 53.14294 | 21819 ft | 406 kts | 259° |
| 2026-05-06 19:02 | 25.34112 | 53.11224 | 21819 ft | 406 kts | 260° |
| 2026-05-06 19:03 | 25.33617 | 53.08197 | 21815 ft | 406 kts | 260° |
| 2026-05-06 19:03 | 25.33116 | 53.05130 | 21815 ft | 406 kts | 260° |
| 2026-05-06 19:03 | 25.32614 | 53.02062 | 21816 ft | 406 kts | 259° |
| 2026-05-06 19:03 | 25.32111 | 52.98996 | 21822 ft | 406 kts | 259° |
| 2026-05-06 19:04 | 25.31605 | 52.95931 | 21817 ft | 405 kts | 259° |
| 2026-05-06 19:04 | 25.31091 | 52.92867 | 21817 ft | 405 kts | 259° |
| 2026-05-06 19:04 | 25.30573 | 52.89807 | 21816 ft | 405 kts | 259° |
| 2026-05-06 19:04 | 25.30061 | 52.86798 | 21817 ft | 401 kts | 259° |
| 2026-05-06 19:05 | 25.29553 | 52.83811 | 21810 ft | 388 kts | 259° |
| 2026-05-06 19:05 | 25.29061 | 52.80912 | 21519 ft | 381 kts | 259° |
| 2026-05-06 19:05 | 25.28575 | 52.78053 | 21173 ft | 378 kts | 259° |
| 2026-05-06 19:05 | 25.28093 | 52.75214 | 20760 ft | 374 kts | 259° |
| 2026-05-06 19:06 | 25.27613 | 52.72401 | 20356 ft | 371 kts | 259° |
| 2026-05-06 19:06 | 25.26982 | 52.69652 | 19953 ft | 368 kts | 250° |
| 2026-05-06 19:06 | 25.25959 | 52.67077 | 19565 ft | 368 kts | 240° |
| 2026-05-06 19:06 | 25.24577 | 52.64707 | 19204 ft | 367 kts | 236° |
| 2026-05-06 19:07 | 25.23128 | 52.62381 | 18814 ft | 367 kts | 235° |
| 2026-05-06 19:07 | 25.22167 | 52.60847 | 18567 ft | 367 kts | 235° |
| 2026-05-06 19:07 | 25.20246 | 52.57763 | 18051 ft | 368 kts | 235° |
| 2026-05-06 19:07 | 25.18800 | 52.55425 | 17624 ft | 369 kts | 236° |
| 2026-05-06 19:08 | 25.17360 | 52.53085 | 17238 ft | 369 kts | 236° |
| 2026-05-06 19:08 | 25.15919 | 52.50740 | 16862 ft | 369 kts | 236° |
| 2026-05-06 19:08 | 25.14481 | 52.48399 | 16477 ft | 369 kts | 236° |
| 2026-05-06 19:08 | 25.13042 | 52.46063 | 16155 ft | 366 kts | 235° |
| 2026-05-06 19:09 | 25.11421 | 52.43921 | 15864 ft | 361 kts | 225° |
| 2026-05-06 19:09 | 25.09518 | 52.42199 | 15831 ft | 348 kts | 217° |
| 2026-05-06 19:09 | 25.07595 | 52.40664 | 15814 ft | 334 kts | 216° |
| 2026-05-06 19:09 | 25.05763 | 52.39221 | 15802 ft | 322 kts | 216° |
| 2026-05-06 19:10 | 25.03981 | 52.37812 | 15813 ft | 309 kts | 216° |
| 2026-05-06 19:10 | 25.02275 | 52.36452 | 15803 ft | 297 kts | 216° |
| 2026-05-06 19:10 | 25.00640 | 52.35142 | 15814 ft | 283 kts | 216° |
| 2026-05-06 19:10 | 24.99091 | 52.33896 | 15795 ft | 268 kts | 216° |
| 2026-05-06 19:11 | 24.97616 | 52.32708 | 15809 ft | 260 kts | 217° |
| 2026-05-06 19:11 | 24.96118 | 52.31500 | 15853 ft | 275 kts | 217° |
| 2026-05-06 19:11 | 24.94541 | 52.30229 | 15828 ft | 286 kts | 217° |
| 2026-05-06 19:11 | 24.92912 | 52.28917 | 15485 ft | 295 kts | 217° |
| 2026-05-06 19:12 | 24.91247 | 52.27566 | 15055 ft | 300 kts | 220° |
| 2026-05-06 19:12 | 24.89937 | 52.25786 | 14565 ft | 304 kts | 248° |
| 2026-05-06 19:12 | 24.89431 | 52.23537 | 14158 ft | 305 kts | 266° |
| 2026-05-06 19:12 | 24.89264 | 52.21225 | 13726 ft | 310 kts | 269° |
| 2026-05-06 19:13 | 24.89125 | 52.18837 | 13239 ft | 315 kts | 269° |
| 2026-05-06 19:13 | 24.88976 | 52.16416 | 12749 ft | 320 kts | 268° |
| 2026-05-06 19:13 | 24.88811 | 52.13959 | 12264 ft | 324 kts | 268° |
| 2026-05-06 19:13 | 24.88635 | 52.11499 | 11766 ft | 321 kts | 268° |
| 2026-05-06 19:14 | 24.88456 | 52.09064 | 11287 ft | 317 kts | 267° |
| 2026-05-06 19:14 | 24.88303 | 52.06660 | 10807 ft | 312 kts | 273° |
| 2026-05-06 19:14 | 24.88747 | 52.04372 | 10330 ft | 303 kts | 299° |
| 2026-05-06 19:14 | 24.89939 | 52.02572 | 10161 ft | 282 kts | 320° |
| 2026-05-06 19:15 | 24.91520 | 52.01441 | 10055 ft | 262 kts | 340° |
| 2026-05-06 19:15 | 24.93194 | 52.01000 | 10038 ft | 242 kts | 358° |
| 2026-05-06 19:15 | 24.94802 | 52.01145 | 10034 ft | 223 kts | 15° |
| 2026-05-06 19:15 | 24.96209 | 52.01764 | 10039 ft | 216 kts | 31° |
| 2026-05-06 19:16 | 24.97394 | 52.02784 | 10044 ft | 220 kts | 45° |
| 2026-05-06 19:16 | 24.98374 | 52.04096 | 10055 ft | 225 kts | 56° |
| 2026-05-06 19:16 | 24.99052 | 52.05664 | 10056 ft | 229 kts | 73° |
| 2026-05-06 19:16 | 24.99302 | 52.07393 | 10059 ft | 228 kts | 81° |
| 2026-05-06 19:17 | 24.99446 | 52.09119 | 10047 ft | 225 kts | 82° |
| 2026-05-06 19:17 | 24.99577 | 52.10829 | 10052 ft | 223 kts | 83° |
| 2026-05-06 19:17 | 24.99708 | 52.12536 | 10051 ft | 223 kts | 82° |
| 2026-05-06 19:17 | 24.99838 | 52.14220 | 10057 ft | 223 kts | 82° |
| 2026-05-06 19:18 | 24.99968 | 52.15928 | 10048 ft | 224 kts | 85° |
| 2026-05-06 19:18 | 24.99713 | 52.17629 | 10048 ft | 229 kts | 108° |
| 2026-05-06 19:18 | 24.99007 | 52.19209 | 10047 ft | 232 kts | 120° |
| 2026-05-06 19:18 | 24.97947 | 52.20569 | 10043 ft | 237 kts | 137° |
| 2026-05-06 19:19 | 24.96547 | 52.21545 | 10045 ft | 242 kts | 154° |
| 2026-05-06 19:19 | 24.94913 | 52.22008 | 10053 ft | 245 kts | 174° |
| 2026-05-06 19:19 | 24.93216 | 52.21865 | 10045 ft | 247 kts | 194° |
| 2026-05-06 19:19 | 24.91646 | 52.21101 | 10055 ft | 248 kts | 215° |
| 2026-05-06 19:20 | 24.90383 | 52.19814 | 10043 ft | 248 kts | 233° |
| 2026-05-06 19:20 | 24.89476 | 52.18242 | 10054 ft | 247 kts | 248° |
| 2026-05-06 19:20 | 24.89066 | 52.16431 | 10061 ft | 243 kts | 266° |
| 2026-05-06 19:20 | 24.88904 | 52.14573 | 10053 ft | 244 kts | 268° |
| 2026-05-06 19:21 | 24.88751 | 52.12708 | 10046 ft | 245 kts | 268° |
| 2026-05-06 19:21 | 24.88604 | 52.10847 | 10055 ft | 244 kts | 269° |
| 2026-05-06 19:21 | 24.88456 | 52.08984 | 10047 ft | 243 kts | 268° |
| 2026-05-06 19:21 | 24.88315 | 52.07148 | 10028 ft | 236 kts | 272° |
| 2026-05-06 19:22 | 24.88639 | 52.05481 | 9999 ft | 218 kts | 301° |
| 2026-05-06 19:22 | 24.89325 | 52.04000 | 9802 ft | 222 kts | 301° |
| 2026-05-06 19:22 | 24.90001 | 52.02481 | 9583 ft | 220 kts | 300° |
| 2026-05-06 19:22 | 24.90655 | 52.00966 | 9335 ft | 219 kts | 298° |
| 2026-05-06 19:23 | 24.91297 | 51.99440 | 9033 ft | 220 kts | 297° |
| 2026-05-06 19:23 | 24.91934 | 51.97901 | 8749 ft | 221 kts | 297° |
| 2026-05-06 19:23 | 24.92567 | 51.96349 | 8464 ft | 223 kts | 296° |
| 2026-05-06 19:23 | 24.93157 | 51.94889 | 8202 ft | 224 kts | 296° |
| 2026-05-06 19:24 | 24.93812 | 51.93256 | 7918 ft | 226 kts | 296° |
| 2026-05-06 19:24 | 24.94440 | 51.91683 | 7634 ft | 228 kts | 297° |
| 2026-05-06 19:24 | 24.95076 | 51.90077 | 7357 ft | 230 kts | 296° |
| 2026-05-06 19:24 | 24.95718 | 51.88455 | 7083 ft | 232 kts | 297° |
| 2026-05-06 19:25 | 24.96365 | 51.86818 | 6821 ft | 234 kts | 295° |
| 2026-05-06 19:25 | 24.97015 | 51.85164 | 6549 ft | 237 kts | 296° |
| 2026-05-06 19:25 | 24.97673 | 51.83492 | 6287 ft | 239 kts | 296° |
| 2026-05-06 19:25 | 24.98335 | 51.81808 | 5998 ft | 241 kts | 295° |
| 2026-05-06 19:26 | 24.99007 | 51.80095 | 5647 ft | 246 kts | 295° |
| 2026-05-06 19:26 | 24.99670 | 51.78339 | 5301 ft | 251 kts | 288° |
| 2026-05-06 19:26 | 24.99759 | 51.76451 | 5063 ft | 251 kts | 256° |
| 2026-05-06 19:26 | 24.98969 | 51.74807 | 5019 ft | 239 kts | 224° |
| 2026-05-06 19:27 | 24.97601 | 51.73911 | 5011 ft | 223 kts | 189° |
| 2026-05-06 19:27 | 24.96146 | 51.73990 | 5004 ft | 203 kts | 153° |
| 2026-05-06 19:27 | 24.95100 | 51.74941 | 5032 ft | 196 kts | 117° |
| 2026-05-06 19:27 | 24.94369 | 51.76223 | 5023 ft | 201 kts | 124° |
| 2026-05-06 19:28 | 24.93524 | 51.77447 | 5034 ft | 201 kts | 123° |
| 2026-05-06 19:28 | 24.92685 | 51.78683 | 5011 ft | 200 kts | 124° |
| 2026-05-06 19:28 | 24.91872 | 51.79890 | 5007 ft | 197 kts | 123° |
| 2026-05-06 19:28 | 24.91050 | 51.81090 | 5019 ft | 196 kts | 123° |
| 2026-05-06 19:29 | 24.90377 | 51.82370 | 5003 ft | 192 kts | 101° |
| 2026-05-06 19:29 | 24.90114 | 51.83784 | 5018 ft | 190 kts | 98° |
| 2026-05-06 19:29 | 24.89878 | 51.85218 | 5037 ft | 192 kts | 98° |
| 2026-05-06 19:29 | 24.89642 | 51.86677 | 5031 ft | 196 kts | 97° |
| 2026-05-06 19:30 | 24.89395 | 51.88153 | 5040 ft | 195 kts | 97° |
| 2026-05-06 19:30 | 24.89146 | 51.89616 | 5008 ft | 194 kts | 97° |
| 2026-05-06 19:30 | 24.88943 | 51.90890 | 5036 ft | 192 kts | 97° |
| 2026-05-06 19:30 | 24.88921 | 51.92335 | 5006 ft | 190 kts | 71° |
| 2026-05-06 19:31 | 24.89600 | 51.93535 | 5037 ft | 186 kts | 45° |
| 2026-05-06 19:31 | 24.90550 | 51.94516 | 5026 ft | 189 kts | 43° |
| 2026-05-06 19:31 | 24.92588 | 51.96385 | 5001 ft | 196 kts | 22° |
| 2026-05-06 19:32 | 24.93926 | 51.96371 | 5040 ft | 203 kts | 337° |
| 2026-05-06 19:32 | 24.94908 | 51.95309 | 5042 ft | 212 kts | 301° |
| 2026-05-06 19:32 | 24.95557 | 51.93820 | 5016 ft | 220 kts | 294° |
| 2026-05-06 19:32 | 24.96049 | 51.92252 | 5036 ft | 219 kts | 290° |
| 2026-05-06 19:33 | 24.96518 | 51.90653 | 5015 ft | 219 kts | 291° |
| 2026-05-06 19:33 | 24.96986 | 51.89071 | 5025 ft | 215 kts | 291° |
| 2026-05-06 19:33 | 24.97457 | 51.87499 | 4936 ft | 218 kts | 292° |
| 2026-05-06 19:33 | 24.97941 | 51.85918 | 4836 ft | 216 kts | 291° |
| 2026-05-06 19:34 | 24.98423 | 51.84356 | 4714 ft | 214 kts | 291° |
| 2026-05-06 19:34 | 24.98901 | 51.82813 | 4583 ft | 211 kts | 290° |
| 2026-05-06 19:34 | 24.99368 | 51.81313 | 4432 ft | 208 kts | 290° |
| 2026-05-06 19:34 | 24.99838 | 51.79809 | 4305 ft | 208 kts | 291° |
| 2026-05-06 19:35 | 25.00313 | 51.78298 | 4197 ft | 210 kts | 290° |
| 2026-05-06 19:35 | 25.00792 | 51.76772 | 4053 ft | 211 kts | 291° |
| 2026-05-06 19:35 | 25.01271 | 51.75245 | 3924 ft | 211 kts | 291° |
| 2026-05-06 19:35 | 25.01750 | 51.73716 | 3787 ft | 211 kts | 291° |
| 2026-05-06 19:36 | 25.02231 | 51.72193 | 3661 ft | 209 kts | 291° |
| 2026-05-06 19:36 | 25.02930 | 51.70818 | 3531 ft | 205 kts | 323° |
| 2026-05-06 19:36 | 25.04163 | 51.70122 | 3531 ft | 200 kts | 340° |
| 2026-05-06 19:36 | 25.05450 | 51.69504 | 3435 ft | 200 kts | 338° |
| 2026-05-06 19:37 | 25.06721 | 51.68901 | 3218 ft | 197 kts | 339° |
| 2026-05-06 19:37 | 25.07959 | 51.68338 | 3018 ft | 193 kts | 340° |
| 2026-05-06 19:37 | 25.09188 | 51.67791 | 2807 ft | 188 kts | 340° |
| 2026-05-06 19:37 | 25.09997 | 51.67435 | 2642 ft | 183 kts | 340° |
| 2026-05-06 19:38 | 25.11471 | 51.66777 | 2508 ft | 160 kts | 339° |
| 2026-05-06 19:38 | 25.12462 | 51.66338 | 2497 ft | 153 kts | 339° |
| 2026-05-06 19:38 | 25.13542 | 51.65858 | 2398 ft | 178 kts | 339° |
| 2026-05-06 19:38 | 25.14660 | 51.65364 | 2198 ft | 166 kts | 339° |
| 2026-05-06 19:39 | 25.15671 | 51.64915 | 2009 ft | 145 kts | 339° |
| 2026-05-06 19:39 | 25.16548 | 51.64526 | 1815 ft | 132 kts | 340° |
| 2026-05-06 19:39 | 25.17116 | 51.64276 | 1733 ft | 130 kts | 338° |
| 2026-05-06 19:39 | 25.18243 | 51.63776 | 1508 ft | 132 kts | 339° |
| 2026-05-06 19:40 | 25.19092 | 51.63401 | 1336 ft | 131 kts | 339° |
| 2026-05-06 19:40 | 25.19943 | 51.63059 | 1168 ft | 129 kts | 341° |
| 2026-05-06 19:40 | 25.20806 | 51.62710 | 952 ft | 133 kts | 336° |
| 2026-05-06 19:40 | 25.21646 | 51.62288 | 851 ft | 135 kts | 336° |
| 2026-05-06 19:41 | 25.22523 | 51.61884 | 690 ft | 135 kts | 338° |
| 2026-05-06 19:41 | 25.23386 | 51.61526 | 508 ft | 134 kts | 338° |
| 2026-05-06 19:41 | 25.24236 | 51.61146 | 347 ft | 131 kts | 334° |
| 2026-05-06 19:41 | 25.25059 | 51.60757 | 170 ft | 128 kts | 337° |
| 2026-05-06 19:42 | 25.25872 | 51.60393 | 35 ft | 120 kts | 339° |
| 2026-05-06 19:42 | 25.26588 | 51.60080 | 25 ft | 95 kts | 338° |
| 2026-05-06 19:42 | 25.26852 | 51.59969 | 24 ft | 19 kts | 346° |
| 2026-05-06 19:42 | 25.26981 | 51.59949 | 25 ft | 18 kts | 2° |
| 2026-05-06 19:43 | 25.27101 | 51.59968 | 26 ft | 5 kts | 22° |
| 2026-05-06 19:43 | 25.27112 | 51.59977 | 28 ft | 0 kts | 45° |
| 2026-05-06 19:44 | 25.27115 | 51.59980 | 26 ft | 2 kts | 51° |
| 2026-05-06 19:44 | 25.27124 | 51.59999 | 27 ft | 6 kts | 71° |
| 2026-05-06 19:45 | 25.27097 | 51.60061 | 27 ft | 13 kts | 150° |
| 2026-05-06 19:45 | 25.26979 | 51.60110 | 27 ft | 22 kts | 158° |
| 2026-05-06 19:45 | 25.26820 | 51.60181 | 27 ft | 26 kts | 158° |
| 2026-05-06 19:45 | 25.26643 | 51.60258 | 27 ft | 28 kts | 159° |
| 2026-05-06 19:46 | 25.26508 | 51.60380 | 28 ft | 16 kts | 71° |
| 2026-05-06 19:46 | 25.26557 | 51.60491 | 29 ft | 17 kts | 36° |
| 2026-05-06 19:46 | 25.26658 | 51.60513 | 29 ft | 16 kts | 68° |
| 2026-05-06 19:46 | 25.26683 | 51.60594 | 29 ft | 17 kts | 68° |
| 2026-05-06 19:47 | 25.26668 | 51.60689 | 29 ft | 11 kts | 111° |
| 2026-05-06 19:47 | 25.26646 | 51.60745 | 29 ft | 13 kts | 114° |
| 2026-05-06 19:47 | 25.26606 | 51.60850 | 29 ft | 17 kts | 113° |
| 2026-05-06 19:47 | 25.26528 | 51.60959 | 29 ft | 20 kts | 159° |
| 2026-05-06 19:48 | 25.26323 | 51.61049 | 29 ft | 27 kts | 158° |
| 2026-05-06 19:48 | 25.26250 | 51.61066 | 29 ft | 7 kts | 172° |
| 2026-05-06 19:48 | 25.26172 | 51.61121 | 29 ft | 9 kts | 157° |
| 2026-05-06 19:48 | 25.26154 | 51.61129 | 29 ft | 1 kts | 157° |
| 2026-05-06 19:49 | 25.26148 | 51.61132 | 29 ft | 0 kts | 159° |
| 2026-05-06 19:49 | 25.26144 | 51.61133 | 29 ft | 0 kts | 159° |